Time;durP1;ratioP1;P1;durP2;ratioP2;P2;SDS_P1;SDS_P2;PMS_P1;PMS_P2;Temp;Humidity;BMP_temperature;BMP_pressure;BME280_temperature;BME280_humidity;BME280_pressure;Samples;Min_cycle;Max_cycle;Signal;HPM_P1;HPM_P2
2022/11/11 05:04:45;;;;;;;4.88;1.55;;;11.10;99.90;;;;;;6093742;23;20210;-70
2022/11/11 05:10:10;;;;;;;1.73;1.63;;;11.10;99.90;;;;;;5975992;24;20747;-70
2022/11/11 05:12:37;;;;;;;1.67;1.58;;;11.10;99.90;;;;;;5973913;24;20187;-70
2022/11/11 05:23:18;;;;;;;1.90;1.40;;;11.10;99.90;;;;;;6104378;23;20598;-69
2022/11/11 05:25:44;;;;;;;1.67;1.20;;;11.10;99.90;;;;;;6094543;23;20188;-69
2022/11/11 05:28:11;;;;;;;10.63;2.17;;;11.10;99.90;;;;;;6094309;23;20442;-69
2022/11/11 05:30:40;;;;;;;5.07;1.95;;;11.10;99.90;;;;;;6094619;23;20457;-69
2022/11/11 05:33:08;;;;;;;5.20;1.63;;;11.10;99.90;;;;;;6092377;23;20186;-69
2022/11/11 05:35:35;;;;;;;1.05;1.05;;;11.10;99.90;;;;;;6095317;23;20185;-69
2022/11/11 05:40:55;;;;;;;1.95;1.23;;;11.10;99.90;;;;;;6021613;23;20534;-69
2022/11/11 05:43:22;;;;;;;4.03;1.67;;;11.10;99.90;;;;;;6092749;23;20186;-68
2022/11/11 05:45:49;;;;;;;1.02;1.02;;;11.10;99.90;;;;;;6094718;23;20188;-69
2022/11/11 05:48:17;;;;;;;2.20;2.08;;;11.10;99.90;;;;;;6093650;23;20195;-69
2022/11/11 05:50:44;;;;;;;2.47;2.38;;;11.10;99.90;;;;;;6093641;23;20617;-70
2022/11/11 05:53:11;;;;;;;3.63;0.98;;;11.10;99.90;;;;;;6092979;23;20189;-69
2022/11/11 05:55:37;;;;;;;1.65;1.40;;;11.10;99.90;;;;;;6095058;23;20197;-69
2022/11/11 05:58:04;;;;;;;1.27;1.27;;;11.10;99.90;;;;;;6093547;23;20286;-69
2022/11/11 06:00:31;;;;;;;1.40;1.30;;;11.10;99.90;;;;;;6094344;23;20202;-68
2022/11/11 06:03:02;;;;;;;1.90;1.80;;;11.10;99.90;;;;;;6103092;23;20182;-69
2022/11/11 06:05:30;;;;;;;6.07;2.45;;;11.10;99.90;;;;;;6095001;23;20672;-68
2022/11/11 06:07:59;;;;;;;3.80;2.22;;;11.10;99.90;;;;;;6093881;23;20194;-69
2022/11/11 06:10:32;;;;;;;2.35;2.25;;;11.10;99.90;;;;;;6093517;23;20622;-69
2022/11/11 06:13:04;;;;;;;2.55;2.45;;;11.10;99.90;;;;;;6093260;23;20167;-69
2022/11/11 06:15:31;;;;;;;2.60;1.60;;;11.10;99.90;;;;;;6094220;23;20582;-69
2022/11/11 06:17:58;;;;;;;2.35;2.15;;;11.10;99.90;;;;;;6093179;23;20465;-69
2022/11/11 06:20:25;;;;;;;1.30;1.30;;;11.10;99.90;;;;;;6093561;23;20182;-67
2022/11/11 06:22:56;;;;;;;2.20;1.38;;;11.10;99.90;;;;;;6093890;23;20213;-68
2022/11/11 06:28:07;;;;;;;3.10;1.30;;;11.10;99.90;;;;;;6093293;23;20219;-69
2022/11/11 06:30:34;;;;;;;1.80;1.38;;;11.10;99.90;;;;;;6093940;23;20209;-70
2022/11/11 06:33:01;;;;;;;2.67;1.17;;;11.10;99.90;;;;;;6102372;23;20208;-68
2022/11/11 06:35:27;;;;;;;1.42;1.35;;;11.10;99.90;;;;;;6093508;23;20237;-69
2022/11/11 06:37:56;;;;;;;2.20;2.20;;;11.10;99.90;;;;;;6093948;23;20186;-68
2022/11/11 06:40:23;;;;;;;2.20;2.10;;;11.10;99.90;;;;;;6093676;23;20186;-68
2022/11/11 06:42:50;;;;;;;3.78;2.72;;;11.10;99.90;;;;;;6102454;23;20261;-68
2022/11/11 06:45:17;;;;;;;2.90;2.80;;;11.10;99.90;;;;;;6094775;23;20194;-68
2022/11/11 06:47:44;;;;;;;4.25;2.17;;;11.10;99.90;;;;;;6092236;23;20657;-68
2022/11/11 06:50:11;;;;;;;1.77;1.70;;;11.10;99.90;;;;;;6094752;23;20186;-69
2022/11/11 06:52:37;;;;;;;1.77;1.67;;;11.10;99.90;;;;;;6093145;23;20187;-68
2022/11/11 06:55:07;;;;;;;4.72;2.30;;;11.10;99.90;;;;;;6095224;23;20189;-68
2022/11/11 06:57:34;;;;;;;1.80;1.48;;;11.10;99.90;;;;;;6093897;23;20186;-68
2022/11/11 07:00:00;;;;;;;3.13;1.95;;;11.10;99.90;;;;;;6095021;23;20630;-68
2022/11/11 07:02:27;;;;;;;2.60;2.22;;;11.20;99.90;;;;;;6092686;23;20217;-68
2022/11/11 07:04:54;;;;;;;5.47;2.50;;;11.10;99.90;;;;;;6094425;23;20621;-68
2022/11/11 07:07:21;;;;;;;2.08;1.63;;;11.20;99.90;;;;;;6094381;23;20185;-67
2022/11/11 07:09:47;;;;;;;2.47;2.20;;;11.20;99.90;;;;;;6094642;23;20188;-68
2022/11/11 07:12:15;;;;;;;2.65;2.55;;;11.20;99.90;;;;;;6094500;23;20868;-67
2022/11/11 07:14:42;;;;;;;2.25;2.05;;;11.20;99.90;;;;;;6092879;23;20186;-67
2022/11/11 07:17:09;;;;;;;3.93;3.60;;;11.20;99.90;;;;;;6094135;23;20637;-67
2022/11/11 07:19:36;;;;;;;4.15;2.17;;;11.20;99.90;;;;;;6094406;23;20450;-67
2022/11/11 07:22:03;;;;;;;4.18;2.97;;;11.20;99.90;;;;;;6094160;23;20224;-67
2022/11/11 07:24:29;;;;;;;2.10;1.90;;;11.30;99.90;;;;;;6093376;23;20188;-67
2022/11/11 07:26:58;;;;;;;2.25;2.20;;;11.30;99.90;;;;;;6094558;23;20191;-67
2022/11/11 07:29:28;;;;;;;2.40;1.95;;;11.30;99.90;;;;;;6092635;23;20569;-69
2022/11/11 07:31:54;;;;;;;3.53;3.00;;;11.30;99.90;;;;;;6093383;23;20233;-69
2022/11/11 07:34:21;;;;;;;3.22;2.92;;;11.40;99.90;;;;;;6093489;23;20186;-69
2022/11/11 07:36:48;;;;;;;6.68;3.63;;;11.40;99.90;;;;;;6093521;23;20181;-69
2022/11/11 07:39:14;;;;;;;3.70;2.42;;;11.40;99.90;;;;;;6093138;23;20192;-68
2022/11/11 07:41:41;;;;;;;5.03;2.70;;;11.40;99.90;;;;;;6099634;23;20210;-71
2022/11/11 07:44:08;;;;;;;2.35;2.13;;;11.40;99.90;;;;;;6093778;23;20460;-70
2022/11/11 07:46:36;;;;;;;4.55;3.35;;;11.40;99.90;;;;;;6094084;23;20190;-70
2022/11/11 07:49:03;;;;;;;5.05;2.67;;;11.40;99.90;;;;;;6093433;23;20205;-70
2022/11/11 07:51:29;;;;;;;4.05;3.13;;;11.40;99.90;;;;;;6091100;23;20766;-70
2022/11/11 07:53:56;;;;;;;5.65;4.22;;;11.40;99.90;;;;;;6089808;23;20480;-70
2022/11/11 07:56:23;;;;;;;6.53;4.55;;;11.30;99.90;;;;;;6091746;23;20594;-69
2022/11/11 07:58:49;;;;;;;5.72;3.75;;;11.30;99.90;;;;;;6092250;23;20244;-69
2022/11/11 08:01:16;;;;;;;3.03;2.45;;;11.30;99.90;;;;;;6091492;23;20213;-69
2022/11/11 08:03:49;;;;;;;3.47;3.28;;;11.40;99.90;;;;;;6092135;23;20246;-69
2022/11/11 08:06:17;;;;;;;3.70;3.40;;;11.40;99.90;;;;;;6091001;23;20175;-69
2022/11/11 08:08:43;;;;;;;2.38;2.28;;;11.40;99.90;;;;;;6092705;23;20198;-69
2022/11/11 08:11:10;;;;;;;3.05;2.40;;;11.40;99.90;;;;;;6092025;23;20210;-69
2022/11/11 08:13:42;;;;;;;5.90;3.17;;;11.40;99.90;;;;;;6091581;23;20184;-69
2022/11/11 08:16:10;;;;;;;3.33;2.95;;;11.40;99.90;;;;;;6093418;23;21024;-69
2022/11/11 08:18:37;;;;;;;2.80;2.60;;;11.40;99.90;;;;;;6094060;23;20201;-69
2022/11/11 08:21:06;;;;;;;3.37;3.13;;;11.50;99.90;;;;;;6092799;23;20238;-69
2022/11/11 08:23:33;;;;;;;3.20;3.00;;;11.50;99.90;;;;;;6093660;23;20429;-69
2022/11/11 08:26:00;;;;;;;8.23;3.80;;;11.50;99.90;;;;;;6094115;23;20426;-69
2022/11/11 08:28:28;;;;;;;5.03;3.10;;;11.50;99.90;;;;;;6094273;23;20183;-68
2022/11/11 08:30:55;;;;;;;4.25;3.90;;;11.50;99.90;;;;;;6092662;23;20203;-67
2022/11/11 08:33:22;;;;;;;4.10;3.90;;;11.50;99.90;;;;;;6093892;23;20187;-67
2022/11/11 08:35:49;;;;;;;3.58;3.28;;;11.50;99.90;;;;;;6093358;23;20182;-68
2022/11/11 08:38:17;;;;;;;2.50;2.33;;;11.50;99.90;;;;;;6093909;23;20193;-68
2022/11/11 08:40:44;;;;;;;3.33;3.05;;;11.50;99.90;;;;;;6093956;23;20759;-68
2022/11/11 08:43:11;;;;;;;3.55;3.00;;;11.50;99.90;;;;;;6093123;23;20182;-68
2022/11/11 08:45:38;;;;;;;7.10;4.95;;;11.60;99.90;;;;;;6093926;23;20523;-68
2022/11/11 08:48:04;;;;;;;11.85;3.85;;;11.60;99.90;;;;;;6093167;23;20184;-68
2022/11/11 08:50:31;;;;;;;3.95;3.75;;;11.60;99.90;;;;;;6093683;23;20167;-69
2022/11/11 08:52:58;;;;;;;5.60;3.47;;;11.60;99.90;;;;;;6089813;23;20207;-69
2022/11/11 08:55:26;;;;;;;3.33;3.13;;;11.60;99.90;;;;;;6092286;23;20948;-68
2022/11/11 08:57:59;;;;;;;3.65;3.35;;;11.70;99.90;;;;;;6092859;23;20537;-69
2022/11/11 09:00:26;;;;;;;3.28;2.83;;;11.70;99.90;;;;;;6092933;23;20171;-68
2022/11/11 09:02:53;;;;;;;6.47;4.22;;;11.70;99.90;;;;;;6091042;23;20237;-69
2022/11/11 09:05:20;;;;;;;4.47;4.05;;;11.70;99.90;;;;;;6092849;23;20250;-71
2022/11/11 09:07:46;;;;;;;6.53;4.05;;;11.70;99.90;;;;;;6092686;23;20190;-68
2022/11/11 09:10:13;;;;;;;5.00;3.05;;;11.70;99.90;;;;;;6093572;23;20187;-69
2022/11/11 09:12:41;;;;;;;4.67;3.70;;;11.70;99.90;;;;;;6101830;23;20531;-69
2022/11/11 09:15:08;;;;;;;4.27;3.90;;;11.70;99.90;;;;;;6093318;23;20437;-69
2022/11/11 09:17:35;;;;;;;4.87;3.37;;;11.70;99.90;;;;;;6092766;23;20426;-69
2022/11/11 09:20:02;;;;;;;3.50;2.77;;;11.70;99.90;;;;;;6092903;23;21010;-69
2022/11/11 09:22:29;;;;;;;6.53;2.95;;;11.70;99.90;;;;;;6092114;23;20442;-69
2022/11/11 09:24:55;;;;;;;4.67;2.30;;;11.80;99.90;;;;;;6092600;23;20204;-69
2022/11/11 09:27:22;;;;;;;3.27;2.97;;;11.80;99.90;;;;;;6094119;23;20458;-70
2022/11/11 09:29:50;;;;;;;2.30;2.30;;;11.80;99.90;;;;;;6090858;23;20425;-70
2022/11/11 09:32:17;;;;;;;3.50;3.20;;;11.80;99.90;;;;;;6093574;23;20449;-69
2022/11/11 09:34:44;;;;;;;2.90;2.70;;;11.80;99.90;;;;;;6093176;23;20433;-70
2022/11/11 09:37:10;;;;;;;6.20;4.30;;;11.80;99.90;;;;;;6092895;23;21005;-70
2022/11/11 09:39:37;;;;;;;2.67;2.57;;;11.80;99.90;;;;;;6102221;23;20437;-69
2022/11/11 09:42:13;;;;;;;3.50;3.20;;;11.80;99.90;;;;;;6092922;23;20450;-69
2022/11/11 09:45:06;;;;;;;5.20;3.27;;;11.80;99.90;;;;;;6092268;23;20410;-68
2022/11/11 09:47:42;;;;;;;6.97;3.93;;;11.70;99.90;;;;;;6092598;23;20430;-69
2022/11/11 09:50:11;;;;;;;4.67;3.10;;;11.70;99.90;;;;;;6093876;23;20416;-68
2022/11/11 09:52:43;;;;;;;4.67;3.87;;;11.70;99.90;;;;;;6091382;23;20795;-70
2022/11/11 09:55:18;;;;;;;6.90;3.20;;;11.70;99.90;;;;;;6093064;23;20431;-69
2022/11/11 09:57:49;;;;;;;4.45;4.05;;;11.70;99.90;;;;;;6092943;23;20414;-70
2022/11/11 10:00:20;;;;;;;11.43;4.13;;;11.70;99.90;;;;;;6093832;23;20174;-69
2022/11/11 10:02:52;;;;;;;4.20;3.72;;;11.70;99.90;;;;;;6091568;23;20465;-69
2022/11/11 10:05:22;;;;;;;3.88;3.63;;;11.70;99.90;;;;;;6093748;23;20205;-71
2022/11/11 10:07:54;;;;;;;6.23;3.67;;;11.70;99.90;;;;;;6092772;23;20193;-68
2022/11/11 10:10:27;;;;;;;2.90;2.73;;;11.70;99.90;;;;;;6093341;23;20422;-70
2022/11/11 10:12:56;;;;;;;4.87;3.27;;;11.70;99.90;;;;;;6091942;23;20845;-70
2022/11/11 10:15:30;;;;;;;6.63;3.20;;;11.80;99.90;;;;;;6093063;23;20446;-69
2022/11/11 10:18:11;;;;;;;6.90;3.40;;;11.80;99.90;;;;;;6092710;23;20907;-69
2022/11/11 10:20:42;;;;;;;3.50;3.20;;;11.80;99.90;;;;;;6092278;23;20447;-69
2022/11/11 10:23:14;;;;;;;3.87;3.23;;;11.80;99.90;;;;;;6091732;23;20425;-70
2022/11/11 10:25:46;;;;;;;5.73;3.70;;;11.80;99.90;;;;;;6093850;23;20541;-70
2022/11/11 10:28:17;;;;;;;4.40;4.00;;;11.80;99.90;;;;;;6093339;23;20418;-72
2022/11/11 10:30:47;;;;;;;3.83;3.53;;;11.80;99.90;;;;;;6092976;23;20450;-72
2022/11/11 10:33:19;;;;;;;2.43;2.33;;;11.90;99.90;;;;;;6091825;23;20186;-71
2022/11/11 10:35:48;;;;;;;2.87;2.10;;;11.90;99.90;;;;;;6094024;23;20425;-71
2022/11/11 10:38:31;;;;;;;3.87;3.60;;;12.00;99.90;;;;;;6092195;23;20874;-70
2022/11/11 10:41:05;;;;;;;4.77;4.00;;;12.10;99.90;;;;;;6093127;23;20509;-71
2022/11/11 10:43:32;;;;;;;5.43;3.83;;;12.10;99.90;;;;;;6092237;23;20445;-70
2022/11/11 10:46:07;;;;;;;3.50;3.20;;;12.20;99.90;;;;;;6092234;23;20760;-72
2022/11/11 10:48:46;;;;;;;3.90;3.53;;;12.10;99.90;;;;;;6091979;23;20411;-71
2022/11/11 10:51:14;;;;;;;3.13;2.33;;;12.20;99.90;;;;;;6091762;23;20957;-71
2022/11/11 10:53:48;;;;;;;2.90;2.70;;;12.20;99.90;;;;;;6090526;23;20505;-70
2022/11/11 10:56:21;;;;;;;3.50;2.63;;;12.20;99.90;;;;;;6092768;23;20799;-69
2022/11/11 10:58:53;;;;;;;3.07;2.87;;;12.20;99.90;;;;;;6091817;23;20426;-69
2022/11/11 11:01:28;;;;;;;2.47;2.30;;;12.20;99.90;;;;;;6091564;23;20454;-69
2022/11/11 11:04:00;;;;;;;2.27;2.17;;;12.20;99.90;;;;;;6093573;23;20410;-72
2022/11/11 11:06:29;;;;;;;2.70;2.57;;;12.20;99.90;;;;;;6093345;23;20441;-72
2022/11/11 11:09:02;;;;;;;2.87;2.77;;;12.30;99.90;;;;;;6093445;23;20431;-70
2022/11/11 11:11:32;;;;;;;6.27;3.20;;;12.30;99.90;;;;;;6093806;23;20462;-69
2022/11/11 11:14:02;;;;;;;2.13;2.03;;;12.30;99.90;;;;;;6092494;23;20427;-69
2022/11/11 11:16:34;;;;;;;3.20;3.10;;;12.30;99.90;;;;;;6092200;23;20495;-70
2022/11/11 11:19:21;;;;;;;4.83;2.97;;;12.40;99.90;;;;;;6094041;23;20411;-69
2022/11/11 11:21:53;;;;;;;2.10;2.10;;;12.40;99.90;;;;;;6093992;23;20450;-71
2022/11/11 11:24:21;;;;;;;2.27;2.27;;;12.40;99.90;;;;;;6093840;23;20427;-70
2022/11/11 11:26:51;;;;;;;3.33;3.13;;;12.40;99.90;;;;;;6093949;23;20427;-69
2022/11/11 11:29:26;;;;;;;2.80;2.60;;;12.40;99.90;;;;;;6092923;23;20426;-68
2022/11/11 11:31:54;;;;;;;2.53;2.40;;;12.40;99.90;;;;;;6092631;23;20457;-69
2022/11/11 11:34:21;;;;;;;3.47;3.37;;;12.30;99.90;;;;;;6092794;23;20434;-70
2022/11/11 11:37:00;;;;;;;3.27;2.97;;;12.30;99.90;;;;;;6091963;23;20448;-69
2022/11/11 11:39:35;;;;;;;2.50;2.30;;;12.30;99.90;;;;;;6093168;23;20442;-71
2022/11/11 11:42:01;;;;;;;6.73;2.23;;;12.30;99.90;;;;;;6091591;23;20450;-70
2022/11/11 11:44:29;;;;;;;2.50;2.40;;;12.50;99.90;;;;;;6091263;23;20426;-68
2022/11/11 11:47:08;;;;;;;4.87;2.60;;;12.50;99.90;;;;;;6091588;23;20427;-68
2022/11/11 11:49:49;;;;;;;3.50;3.20;;;12.60;99.90;;;;;;6092254;23;20424;-69
2022/11/11 11:52:24;;;;;;;2.77;2.57;;;12.70;99.90;;;;;;6092431;23;20709;-68
2022/11/11 11:54:58;;;;;;;3.80;3.13;;;12.80;99.90;;;;;;6091204;23;20418;-69
2022/11/11 11:57:40;;;;;;;2.30;2.20;;;12.90;99.90;;;;;;6092374;23;20792;-69
2022/11/11 12:00:16;;;;;;;3.70;2.47;;;13.00;99.90;;;;;;6092814;23;20416;-69
2022/11/11 12:03:08;;;;;;;2.60;2.43;;;13.10;99.90;;;;;;6091013;23;20416;-70
2022/11/11 12:05:40;;;;;;;6.23;3.47;;;13.20;99.90;;;;;;6092510;23;20415;-70
2022/11/11 12:08:21;;;;;;;3.17;2.97;;;13.20;99.90;;;;;;6092564;23;20762;-70
2022/11/11 12:10:56;;;;;;;4.10;3.77;;;13.20;99.90;;;;;;6092817;23;20454;-70
2022/11/11 12:13:36;;;;;;;4.60;2.40;;;13.20;99.90;;;;;;6091930;23;20442;-69
2022/11/11 12:16:12;;;;;;;4.00;2.80;;;13.20;99.90;;;;;;6091440;23;20486;-69
2022/11/11 12:18:54;;;;;;;2.70;2.60;;;13.20;99.90;;;;;;6092645;23;20410;-69
2022/11/11 12:21:26;;;;;;;2.80;2.60;;;13.20;99.90;;;;;;6092883;23;20454;-69
2022/11/11 12:24:07;;;;;;;2.43;2.33;;;13.20;99.90;;;;;;6092062;23;20693;-70
2022/11/11 12:26:39;;;;;;;2.00;1.90;;;13.20;99.90;;;;;;6092827;23;20418;-68
2022/11/11 12:29:22;;;;;;;3.03;2.80;;;13.20;99.90;;;;;;6093193;23;20412;-69
2022/11/11 12:32:03;;;;;;;2.87;2.67;;;13.30;99.90;;;;;;6092515;23;20454;-68
2022/11/11 12:34:46;;;;;;;2.70;2.60;;;13.30;99.90;;;;;;6092267;23;20458;-71
2022/11/11 12:37:20;;;;;;;2.53;2.33;;;13.30;99.90;;;;;;6094221;23;20410;-69
2022/11/11 12:40:05;;;;;;;2.50;2.40;;;13.40;99.90;;;;;;6093071;23;20422;-68
2022/11/11 12:42:46;;;;;;;2.53;2.33;;;13.50;99.90;;;;;;6092987;23;20450;-69
2022/11/11 12:45:17;;;;;;;5.17;1.80;;;13.50;99.90;;;;;;6093316;23;20412;-69
2022/11/11 12:47:56;;;;;;;2.57;2.47;;;13.60;99.90;;;;;;6093804;23;20415;-68
2022/11/11 12:50:33;;;;;;;1.60;1.60;;;13.80;99.90;;;;;;6096523;23;20435;-71
2022/11/11 12:53:24;;;;;;;2.87;2.57;;;13.80;99.90;;;;;;6095757;23;20440;-70
2022/11/11 12:56:00;;;;;;;1.20;1.13;;;13.80;99.90;;;;;;6097622;23;20432;-69
2022/11/11 12:58:38;;;;;;;0.90;0.90;;;13.80;99.90;;;;;;6097575;23;20415;-70
2022/11/11 13:01:17;;;;;;;1.67;1.60;;;13.80;99.90;;;;;;6097093;23;20450;-68
2022/11/11 13:03:56;;;;;;;1.60;1.60;;;13.80;99.90;;;;;;6099199;23;20418;-67
2022/11/11 13:06:52;;;;;;;0.97;0.97;;;13.90;99.90;;;;;;6099108;23;20407;-69
2022/11/11 13:09:33;;;;;;;1.83;1.30;;;13.90;99.90;;;;;;6097977;23;20427;-69
2022/11/11 13:12:06;;;;;;;1.60;0.87;;;13.90;99.90;;;;;;6097321;23;20471;-69
2022/11/11 13:14:46;;;;;;;2.03;1.80;;;13.90;99.90;;;;;;6095133;23;20420;-69
2022/11/11 13:17:14;;;;;;;1.90;1.83;;;13.90;99.90;;;;;;6094307;23;20411;-69
2022/11/11 13:19:46;;;;;;;1.70;1.60;;;14.00;99.90;;;;;;6094151;23;20466;-69
2022/11/11 13:22:22;;;;;;;1.00;1.00;;;14.00;99.90;;;;;;6094728;23;20450;-68
2022/11/11 13:24:49;;;;;;;1.30;1.30;;;14.00;99.90;;;;;;6091309;23;20919;-69
2022/11/11 13:27:21;;;;;;;5.37;1.63;;;14.00;99.90;;;;;;6092946;23;20474;-70
2022/11/11 13:30:04;;;;;;;1.57;1.47;;;14.00;99.90;;;;;;6093311;23;20435;-70
2022/11/11 13:32:37;;;;;;;1.33;1.33;;;14.00;99.90;;;;;;6093301;23;20455;-68
2022/11/11 13:35:10;;;;;;;1.80;1.07;;;14.00;99.90;;;;;;6094707;23;20917;-70
2022/11/11 13:37:39;;;;;;;1.27;0.80;;;13.90;99.90;;;;;;6093993;23;20433;-69
2022/11/11 13:40:08;;;;;;;0.70;0.50;;;13.90;99.90;;;;;;6094647;23;20442;-69
2022/11/11 13:42:38;;;;;;;0.60;0.60;;;13.90;99.90;;;;;;6091346;23;20553;-69
2022/11/11 13:45:09;;;;;;;0.40;0.40;;;13.90;99.90;;;;;;6102778;23;20530;-70
2022/11/11 13:47:39;;;;;;;1.10;1.10;;;13.90;99.90;;;;;;6089861;23;20431;-68
2022/11/11 13:50:12;;;;;;;1.37;0.70;;;13.90;99.90;;;;;;6092920;23;20413;-70
2022/11/11 13:52:52;;;;;;;1.33;1.23;;;13.80;99.90;;;;;;6092053;23;20459;-70
2022/11/11 13:55:30;;;;;;;0.77;0.77;;;13.80;99.90;;;;;;6094851;23;20416;-69
2022/11/11 13:57:56;;;;;;;1.27;1.27;;;13.80;99.90;;;;;;6093733;23;20411;-69
2022/11/11 14:00:29;;;;;;;4.43;1.27;;;13.80;99.90;;;;;;6093572;23;20434;-70
2022/11/11 14:03:31;;;;;;;1.17;1.17;;;13.80;99.90;;;;;;6092893;23;20919;-69
2022/11/11 14:06:36;;;;;;;0.50;0.50;;;13.80;99.90;;;;;;6093653;23;20492;-68
2022/11/11 14:09:05;;;;;;;1.40;0.80;;;13.80;99.90;;;;;;6094684;23;20432;-70
2022/11/11 14:11:33;;;;;;;1.50;1.23;;;13.80;99.90;;;;;;6108448;23;20447;-68
2022/11/11 14:14:37;;;;;;;1.37;1.27;;;13.80;99.90;;;;;;6104580;23;20454;-68
2022/11/11 14:17:14;;;;;;;0.73;0.73;;;13.70;99.90;;;;;;6086875;23;20551;-68
2022/11/11 14:19:40;;;;;;;0.50;0.50;;;13.70;99.90;;;;;;6100940;23;20407;-70
2022/11/11 14:22:29;;;;;;;1.33;1.30;;;13.60;99.90;;;;;;6094428;23;20451;-70
2022/11/11 14:25:09;;;;;;;2.10;1.60;;;13.60;99.90;;;;;;6095568;23;20545;-71
2022/11/11 14:27:35;;;;;;;0.87;0.87;;;13.60;99.90;;;;;;6094322;23;20418;-71
2022/11/11 14:30:03;;;;;;;1.00;1.00;;;13.50;99.90;;;;;;6094268;23;20432;-70
2022/11/11 14:32:42;;;;;;;0.60;0.60;;;13.60;99.90;;;;;;6093295;23;20469;-70
2022/11/11 14:35:25;;;;;;;0.80;0.80;;;13.50;99.90;;;;;;6093168;23;20882;-70
2022/11/11 14:38:03;;;;;;;1.27;1.27;;;13.40;99.90;;;;;;6093824;23;20450;-70
2022/11/11 14:40:31;;;;;;;3.30;1.07;;;13.40;99.90;;;;;;6094031;23;20498;-71
2022/11/11 14:42:59;;;;;;;3.07;1.80;;;13.40;99.90;;;;;;6092119;23;20407;-70
2022/11/11 14:46:03;;;;;;;5.70;1.17;;;13.30;99.90;;;;;;6093827;23;20426;-70
2022/11/11 14:49:02;;;;;;;0.60;0.60;;;13.20;99.90;;;;;;6093219;23;20416;-71
2022/11/11 14:51:53;;;;;;;1.70;1.70;;;13.20;99.90;;;;;;5977265;23;20813;-70
2022/11/11 14:54:52;;;;;;;1.40;1.30;;;13.10;99.90;;;;;;6086442;23;20452;-71
2022/11/11 14:57:23;;;;;;;5.57;2.27;;;13.10;99.90;;;;;;6094106;23;20452;-70
2022/11/11 14:59:51;;;;;;;2.83;1.30;;;13.00;99.90;;;;;;6093603;23;20933;-70
2022/11/11 15:02:28;;;;;;;0.43;0.40;;;13.00;99.90;;;;;;6091851;23;20454;-69
2022/11/11 15:04:59;;;;;;;1.90;1.33;;;12.90;99.90;;;;;;6093122;23;20467;-70
2022/11/11 15:07:42;;;;;;;1.00;1.00;;;12.80;99.90;;;;;;6091907;23;20406;-68
2022/11/11 15:10:19;;;;;;;4.33;2.80;;;12.80;99.90;;;;;;6094252;23;20411;-69
2022/11/11 15:13:07;;;;;;;5.20;2.97;;;12.70;99.90;;;;;;6092288;23;20763;-69
2022/11/11 15:15:44;;;;;;;1.70;1.60;;;12.60;99.90;;;;;;6093575;23;20431;-69
2022/11/11 15:18:25;;;;;;;1.37;1.37;;;12.50;99.90;;;;;;6092087;23;20427;-70
2022/11/11 15:21:01;;;;;;;1.50;1.40;;;12.50;99.90;;;;;;6093223;23;20450;-69
2022/11/11 15:23:34;;;;;;;4.30;2.63;;;12.40;99.90;;;;;;6092439;23;20747;-69
2022/11/11 15:26:11;;;;;;;1.13;1.03;;;12.30;99.90;;;;;;6091771;23;20418;-68
2022/11/11 15:29:23;;;;;;;2.10;2.00;;;12.20;99.90;;;;;;6089953;23;20421;-69
2022/11/11 15:31:57;;;;;;;3.20;2.17;;;12.20;99.90;;;;;;6079556;23;20474;-68
2022/11/11 15:34:35;;;;;;;1.87;1.83;;;12.10;99.90;;;;;;6091121;23;20434;-69
2022/11/11 15:37:09;;;;;;;5.43;2.20;;;12.00;99.90;;;;;;6092934;23;20417;-69
2022/11/11 15:39:40;;;;;;;11.48;2.40;;;11.90;99.90;;;;;;6093192;23;20410;-70
2022/11/11 15:42:13;;;;;;;2.15;2.00;;;11.80;99.90;;;;;;6091743;23;20213;-68
2022/11/11 15:44:40;;;;;;;3.23;2.03;;;11.70;99.90;;;;;;6091533;23;20221;-68
2022/11/11 15:47:12;;;;;;;2.20;2.10;;;11.70;99.90;;;;;;6091690;23;20445;-69
2022/11/11 15:49:40;;;;;;;4.97;1.85;;;11.60;99.90;;;;;;6101753;23;20373;-69
2022/11/11 15:52:28;;;;;;;2.38;2.22;;;11.50;99.90;;;;;;6092581;23;20663;-69
2022/11/11 15:54:55;;;;;;;2.22;2.17;;;11.50;99.90;;;;;;6092395;23;20192;-69
2022/11/11 15:57:24;;;;;;;4.43;2.30;;;11.40;99.90;;;;;;6093142;23;20601;-70
2022/11/11 15:59:50;;;;;;;7.25;2.90;;;11.30;99.90;;;;;;6092297;23;20240;-69
2022/11/11 16:02:20;;;;;;;3.75;2.97;;;11.30;99.90;;;;;;6093096;23;20226;-69
2022/11/11 16:04:48;;;;;;;1.75;1.75;;;11.20;99.90;;;;;;6091689;23;20181;-70
2022/11/11 16:07:20;;;;;;;2.60;2.50;;;11.20;99.90;;;;;;6093461;23;20186;-69
2022/11/11 16:09:47;;;;;;;5.15;3.50;;;11.10;99.90;;;;;;6092867;23;20183;-69
2022/11/11 16:12:19;;;;;;;2.85;2.65;;;11.00;99.90;;;;;;6092524;23;20206;-71
2022/11/11 16:14:48;;;;;;;6.75;4.10;;;11.10;99.90;;;;;;6090996;23;20700;-70
2022/11/11 16:17:16;;;;;;;2.95;2.85;;;10.90;99.90;;;;;;6092745;23;20183;-70
2022/11/11 16:19:44;;;;;;;5.65;3.67;;;10.90;99.90;;;;;;6093008;23;20575;-69
2022/11/11 16:22:15;;;;;;;3.97;3.75;;;10.90;99.90;;;;;;6092704;23;20210;-69
2022/11/11 16:24:44;;;;;;;4.25;3.97;;;10.80;99.90;;;;;;6091943;23;20168;-69
2022/11/11 16:27:20;;;;;;;4.80;3.20;;;10.80;99.90;;;;;;6093824;23;20669;-69
2022/11/11 16:29:47;;;;;;;5.22;3.35;;;10.80;99.90;;;;;;6092110;23;20181;-70
2022/11/11 16:32:31;;;;;;;6.47;3.15;;;10.70;99.90;;;;;;6092715;23;20213;-70
2022/11/11 16:34:58;;;;;;;7.20;3.13;;;10.70;99.90;;;;;;6092578;23;20194;-70
2022/11/11 16:37:24;;;;;;;4.15;3.92;;;10.60;99.90;;;;;;6093805;23;20785;-69
2022/11/11 16:39:52;;;;;;;4.40;3.97;;;10.60;99.90;;;;;;6094763;23;20183;-70
2022/11/11 16:42:21;;;;;;;2.85;2.75;;;10.60;99.90;;;;;;6092723;23;20233;-69
2022/11/11 16:44:53;;;;;;;5.65;5.10;;;10.50;99.90;;;;;;6093812;23;20182;-69
2022/11/11 16:47:43;;;;;;;4.22;3.78;;;10.50;99.90;;;;;;6092769;23;20172;-69
2022/11/11 16:50:12;;;;;;;5.30;4.80;;;10.50;99.90;;;;;;6095733;23;20173;-70
2022/11/11 16:52:43;;;;;;;4.72;4.22;;;10.50;99.90;;;;;;6094211;23;20540;-70
2022/11/11 16:55:20;;;;;;;4.60;3.75;;;10.50;99.90;;;;;;6095974;23;20186;-70
2022/11/11 16:57:47;;;;;;;5.80;3.60;;;10.50;99.90;;;;;;6095132;23;20405;-69
2022/11/11 17:00:17;;;;;;;7.82;4.80;;;10.40;99.90;;;;;;6095909;23;20199;-70
2022/11/11 17:02:44;;;;;;;8.13;5.40;;;10.40;99.90;;;;;;6094380;23;20244;-69
2022/11/11 17:05:11;;;;;;;4.00;3.53;;;10.40;99.90;;;;;;6095415;23;20188;-70
2022/11/11 17:07:40;;;;;;;4.40;3.72;;;10.30;99.90;;;;;;6095402;23;20191;-71
2022/11/11 17:10:14;;;;;;;3.42;3.15;;;10.30;99.90;;;;;;6095738;23;20199;-71
2022/11/11 17:12:41;;;;;;;3.13;2.92;;;10.30;99.90;;;;;;6094223;23;20201;-71
2022/11/11 17:15:11;;;;;;;5.07;4.00;;;10.20;99.90;;;;;;6095840;23;20208;-69
2022/11/11 17:17:39;;;;;;;4.50;4.15;;;10.20;99.90;;;;;;6095044;23;20260;-70
2022/11/11 17:20:10;;;;;;;3.75;3.45;;;10.20;99.90;;;;;;6094311;23;20207;-69
2022/11/11 17:22:36;;;;;;;6.20;4.82;;;10.20;99.90;;;;;;6094648;23;20207;-70
2022/11/11 17:25:04;;;;;;;5.57;4.43;;;10.10;99.90;;;;;;6094195;23;20606;-70
2022/11/11 17:27:32;;;;;;;4.28;3.70;;;10.10;99.90;;;;;;6094033;23;20186;-70
2022/11/11 17:29:59;;;;;;;4.75;4.38;;;10.10;99.90;;;;;;6095131;23;20462;-69
2022/11/11 17:32:25;;;;;;;6.07;5.43;;;10.10;99.90;;;;;;6093592;23;20211;-69
2022/11/11 17:34:52;;;;;;;4.57;4.20;;;10.10;99.90;;;;;;6093272;23;20205;-70
2022/11/11 17:37:19;;;;;;;5.13;4.72;;;10.00;99.90;;;;;;6093385;23;20266;-70
2022/11/11 17:39:46;;;;;;;5.13;4.32;;;10.00;99.90;;;;;;6093998;23;20181;-70
2022/11/11 17:42:13;;;;;;;9.43;4.72;;;10.00;99.90;;;;;;6093866;23;20209;-70
2022/11/11 17:44:41;;;;;;;5.15;3.92;;;9.90;99.90;;;;;;6094490;23;20673;-70
2022/11/11 17:47:08;;;;;;;5.65;5.13;;;9.90;99.90;;;;;;6094487;23;20194;-71
2022/11/11 17:49:35;;;;;;;4.22;3.92;;;9.90;99.90;;;;;;6094563;23;20194;-69
2022/11/11 17:52:01;;;;;;;5.20;4.85;;;9.80;99.90;;;;;;6095300;23;20207;-69
2022/11/11 17:54:28;;;;;;;6.68;5.38;;;9.80;99.90;;;;;;6094705;23;20207;-69
2022/11/11 17:56:55;;;;;;;7.25;5.25;;;9.70;99.90;;;;;;6095469;23;20195;-70
2022/11/11 17:59:22;;;;;;;5.45;5.05;;;9.70;99.90;;;;;;6094468;23;20195;-69
2022/11/11 18:01:50;;;;;;;5.70;4.72;;;9.70;99.90;;;;;;6094401;23;20207;-69
2022/11/11 18:04:16;;;;;;;6.90;5.30;;;9.60;99.90;;;;;;6093959;23;20181;-69
2022/11/11 18:06:43;;;;;;;4.65;4.10;;;9.60;99.90;;;;;;6094930;23;20207;-69
2022/11/11 18:09:10;;;;;;;9.45;5.15;;;9.60;99.90;;;;;;6094860;23;20188;-68
2022/11/11 18:11:36;;;;;;;7.78;4.20;;;9.50;99.90;;;;;;6095188;23;20207;-69
2022/11/11 18:14:03;;;;;;;5.00;4.22;;;9.50;99.90;;;;;;6092630;23;20254;-69
2022/11/11 18:16:30;;;;;;;6.53;5.95;;;9.50;99.90;;;;;;6093644;23;20467;-69
2022/11/11 18:19:00;;;;;;;7.47;6.55;;;9.50;99.90;;;;;;6093207;23;20187;-71
2022/11/11 18:21:27;;;;;;;15.80;7.43;;;9.40;99.90;;;;;;6093873;23;20511;-70
2022/11/11 18:23:54;;;;;;;12.32;9.52;;;9.40;99.90;;;;;;6093064;23;20242;-70
2022/11/11 18:26:21;;;;;;;9.07;8.18;;;9.40;99.90;;;;;;6093432;23;20188;-70
2022/11/11 18:28:48;;;;;;;16.20;7.93;;;9.40;99.90;;;;;;6092658;23;20187;-70
2022/11/11 18:31:15;;;;;;;8.43;7.60;;;9.30;99.90;;;;;;6093190;23;20207;-70